Time;durP1;ratioP1;P1;durP2;ratioP2;P2;SDS_P1;SDS_P2;PMS_P1;PMS_P2;Temp;Humidity;BMP_temperature;BMP_pressure;BME280_temperature;BME280_humidity;BME280_pressure;Samples;Min_cycle;Max_cycle;Signal;HPM_P1;HPM_P2
2022/10/18 00:00:12;;;;;;;6.97;6.47;;;12.20;99.90;;;;;;4151818;28;20100;-58
2022/10/18 00:02:32;;;;;;;6.72;6.15;;;12.10;99.90;;;;;;4159454;28;20091;-58
2022/10/18 00:04:53;;;;;;;7.25;6.75;;;12.10;99.90;;;;;;4157633;28;20149;-58
2022/10/18 00:07:13;;;;;;;7.72;7.25;;;11.90;99.90;;;;;;4157566;28;20438;-58
2022/10/18 00:09:35;;;;;;;6.50;6.15;;;11.80;99.90;;;;;;4158145;28;20150;-58
2022/10/18 00:11:56;;;;;;;6.05;5.75;;;12.00;99.90;;;;;;4148251;28;20161;-58
2022/10/18 00:14:17;;;;;;;6.50;6.25;;;12.00;99.90;;;;;;4160970;28;20104;-58
2022/10/18 00:16:37;;;;;;;8.00;7.35;;;12.20;99.90;;;;;;4158082;28;20562;-58
2022/10/18 00:18:58;;;;;;;8.27;7.80;;;12.20;99.90;;;;;;4161243;28;20140;-58
2022/10/18 00:21:21;;;;;;;8.38;7.85;;;12.00;99.90;;;;;;4154196;28;20109;-58
2022/10/18 00:23:42;;;;;;;9.48;8.32;;;11.90;99.90;;;;;;4155380;28;20045;-58
2022/10/18 00:26:18;;;;;;;8.63;7.85;;;11.80;99.90;;;;;;4153401;28;20100;-58
2022/10/18 00:28:39;;;;;;;9.02;7.13;;;11.80;99.90;;;;;;4159099;28;20479;-58
2022/10/18 00:31:12;;;;;;;97.18;10.35;;;11.60;99.90;;;;;;4148111;28;20107;-57
2022/10/18 00:33:32;;;;;;;97.65;9.18;;;11.60;99.90;;;;;;4149176;28;20107;-58
2022/10/18 00:35:53;;;;;;;100.72;9.80;;;11.50;99.90;;;;;;4150783;28;20112;-58
2022/10/18 00:38:14;;;;;;;61.90;7.95;;;11.40;99.90;;;;;;4154198;28;20111;-58
2022/10/18 00:40:34;;;;;;;8.60;4.93;;;11.40;99.90;;;;;;4155839;28;20099;-58
2022/10/18 00:42:55;;;;;;;29.15;7.57;;;11.30;99.90;;;;;;4151744;28;20108;-58
2022/10/18 00:45:19;;;;;;;24.17;7.57;;;11.20;99.90;;;;;;4160206;28;20055;-58
2022/10/18 00:47:41;;;;;;;16.15;6.25;;;11.20;99.90;;;;;;4159297;28;20060;-58
2022/10/18 00:50:04;;;;;;;5.57;5.07;;;11.20;99.90;;;;;;4148291;28;20072;-58
2022/10/18 00:52:44;;;;;;;38.63;4.95;;;11.20;99.90;;;;;;4152004;28;20052;-58
2022/10/18 00:55:07;;;;;;;22.05;5.20;;;11.20;99.90;;;;;;4157713;28;20103;-57
2022/10/18 00:57:28;;;;;;;;;;;11.30;99.90;;;;;;4155770;28;20083;-58
2022/10/18 00:59:50;;;;;;;15.57;5.63;;;11.30;99.90;;;;;;4154914;28;20353;-58
2022/10/18 01:02:13;;;;;;;16.30;5.80;;;11.10;99.90;;;;;;4151999;28;20052;-57
2022/10/18 01:04:34;;;;;;;19.92;5.90;;;11.10;99.90;;;;;;4151340;28;20519;-57
2022/10/18 01:06:57;;;;;;;12.18;6.25;;;11.20;99.90;;;;;;4147761;28;20422;-58
2022/10/18 01:09:27;;;;;;;;;;;11.10;99.90;;;;;;4148463;28;20076;-58
2022/10/18 01:12:25;;;;;;;6.05;5.75;;;11.20;99.90;;;;;;4163846;28;19975;-58
2022/10/18 01:15:00;;;;;;;5.57;5.38;;;11.30;99.90;;;;;;4155582;28;20056;-58
2022/10/18 01:17:43;;;;;;;5.57;5.10;;;11.40;99.90;;;;;;4158071;28;20422;-58
2022/10/18 01:20:25;;;;;;;5.07;4.83;;;11.50;99.90;;;;;;4160658;28;20056;-56
2022/10/18 01:23:04;;;;;;;5.07;4.65;;;11.50;99.90;;;;;;4163813;28;20651;-58
2022/10/18 01:26:06;;;;;;;6.22;6.13;;;11.50;99.90;;;;;;4164908;28;20048;-58
2022/10/18 01:28:47;;;;;;;5.85;5.75;;;11.60;99.90;;;;;;4115697;28;20097;-58
2022/10/18 01:31:17;;;;;;;5.78;5.63;;;11.60;99.90;;;;;;4153451;28;20068;-58
2022/10/18 01:33:55;;;;;;;5.38;5.07;;;11.60;99.90;;;;;;4160034;28;20064;-59
2022/10/18 01:36:30;;;;;;;5.82;5.32;;;11.50;99.90;;;;;;4157897;28;20137;-58
2022/10/18 01:38:56;;;;;;;5.18;5.07;;;11.60;99.90;;;;;;4158610;28;20052;-58
2022/10/18 01:41:18;;;;;;;6.35;6.15;;;11.60;99.90;;;;;;4154198;28;20520;-57
2022/10/18 01:43:40;;;;;;;5.90;5.78;;;11.50;99.90;;;;;;4152263;28;20049;-58
2022/10/18 01:46:03;;;;;;;5.82;5.72;;;11.40;99.90;;;;;;4150474;28;20061;-58
2022/10/18 01:48:23;;;;;;;6.72;6.22;;;11.30;99.90;;;;;;4158253;28;20053;-58
2022/10/18 01:50:44;;;;;;;26.17;8.10;;;11.20;99.90;;;;;;4161423;28;20056;-57
2022/10/18 01:53:04;;;;;;;30.02;7.80;;;11.10;99.90;;;;;;4159453;28;20053;-58
2022/10/18 01:55:48;;;;;;;6.32;6.20;;;11.00;99.90;;;;;;4157543;28;20082;-58
2022/10/18 01:58:27;;;;;;;8.05;7.47;;;11.10;99.90;;;;;;4154896;28;20063;-59
2022/10/18 02:00:57;;;;;;;6.82;6.50;;;11.00;99.90;;;;;;4161542;28;20057;-58
2022/10/18 02:03:23;;;;;;;18.20;7.40;;;10.90;99.90;;;;;;4164333;28;20084;-58
2022/10/18 02:06:07;;;;;;;23.33;7.28;;;10.80;99.90;;;;;;4149899;28;20127;-57
2022/10/18 02:08:39;;;;;;;;;;;10.70;99.90;;;;;;4160877;28;20060;-58
2022/10/18 02:11:04;;;;;;;8.80;8.07;;;10.80;99.90;;;;;;4155696;28;19932;-58
2022/10/18 02:13:37;;;;;;;32.60;7.97;;;10.70;99.90;;;;;;4158448;28;20055;-58
2022/10/18 02:16:03;;;;;;;78.55;8.90;;;10.60;99.90;;;;;;4156857;28;20052;-58
2022/10/18 02:18:30;;;;;;;57.40;8.40;;;10.50;99.90;;;;;;4159775;28;20088;-58
2022/10/18 02:20:51;;;;;;;41.92;7.18;;;10.40;99.90;;;;;;4159809;28;20528;-58
2022/10/18 02:23:13;;;;;;;61.95;6.80;;;10.30;99.90;;;;;;4158880;28;20120;-58
2022/10/18 02:25:34;;;;;;;29.70;5.90;;;10.20;99.90;;;;;;4150319;28;20521;-58
2022/10/18 02:27:55;;;;;;;5.15;4.95;;;10.10;99.90;;;;;;4158017;28;20478;-58
2022/10/18 02:30:16;;;;;;;18.98;4.75;;;10.10;99.90;;;;;;4152805;28;20044;-58
2022/10/18 02:32:48;;;;;;;37.70;5.82;;;10.20;99.90;;;;;;4157810;28;20562;-58
2022/10/18 02:35:28;;;;;;;44.75;4.93;;;10.20;99.90;;;;;;4155861;28;20060;-58
2022/10/18 02:37:51;;;;;;;34.15;5.10;;;10.20;99.90;;;;;;4153862;28;20052;-58
2022/10/18 02:40:12;;;;;;;;;;;10.20;99.90;;;;;;4152256;28;20482;-58
2022/10/18 02:42:38;;;;;;;17.55;4.75;;;10.20;99.90;;;;;;4150098;28;20295;-58
2022/10/18 02:44:59;;;;;;;11.05;5.30;;;10.20;99.90;;;;;;4150321;28;20401;-58
2022/10/18 02:47:19;;;;;;;6.90;5.03;;;10.20;99.90;;;;;;4161435;28;20195;-58
2022/10/18 02:49:40;;;;;;;4.75;4.65;;;10.20;99.90;;;;;;4159686;28;20522;-58
2022/10/18 02:52:00;;;;;;;20.95;5.43;;;10.30;99.90;;;;;;4156934;28;20111;-57
2022/10/18 02:54:22;;;;;;;22.80;5.70;;;10.50;99.90;;;;;;4154847;28;20459;-58
2022/10/18 02:56:42;;;;;;;21.17;5.43;;;10.50;99.90;;;;;;4152973;28;20137;-57
2022/10/18 02:59:06;;;;;;;3.95;3.83;;;10.40;99.90;;;;;;4160800;28;20155;-58
2022/10/18 03:01:26;;;;;;;;;;;10.50;99.90;;;;;;4160057;28;20131;-58
2022/10/18 03:03:47;;;;;;;22.80;4.10;;;10.50;99.90;;;;;;4153095;28;19975;-58
2022/10/18 03:06:08;;;;;;;10.23;4.40;;;10.50;99.90;;;;;;4151396;28;20122;-58
2022/10/18 03:08:29;;;;;;;3.95;3.85;;;10.50;99.90;;;;;;4154608;28;20563;-59
2022/10/18 03:10:49;;;;;;;7.22;4.22;;;10.50;99.90;;;;;;4156093;28;20056;-58
2022/10/18 03:13:10;;;;;;;11.65;3.97;;;10.60;99.90;;;;;;4155357;28;20137;-59
2022/10/18 03:15:30;;;;;;;4.50;4.20;;;10.60;99.90;;;;;;4159893;28;20137;-58
2022/10/18 03:17:51;;;;;;;4.72;3.65;;;10.50;99.90;;;;;;4162088;28;20056;-58
2022/10/18 03:20:12;;;;;;;13.93;4.07;;;10.50;99.90;;;;;;4160596;28;20257;-58
2022/10/18 03:22:33;;;;;;;7.22;3.65;;;10.50;99.90;;;;;;4149342;28;20155;-58
2022/10/18 03:24:53;;;;;;;3.38;3.28;;;10.50;99.90;;;;;;4150730;28;20133;-58
2022/10/18 03:27:14;;;;;;;41.15;4.53;;;10.60;99.90;;;;;;4159483;28;20047;-58
2022/10/18 03:29:37;;;;;;;86.90;7.70;;;10.40;99.90;;;;;;4157285;28;20410;-59
2022/10/18 03:31:57;;;;;;;42.42;7.10;;;10.30;99.90;;;;;;4154997;28;20064;-59
2022/10/18 03:34:17;;;;;;;13.82;6.80;;;10.30;99.90;;;;;;4151723;28;20425;-58
2022/10/18 03:36:40;;;;;;;9.15;6.38;;;10.30;99.90;;;;;;4158008;28;20519;-59
2022/10/18 03:39:00;;;;;;;6.38;6.00;;;10.30;99.90;;;;;;4149430;28;20061;-59
2022/10/18 03:41:21;;;;;;;10.85;5.35;;;10.40;99.90;;;;;;4149195;28;20056;-58
2022/10/18 03:43:41;;;;;;;8.20;4.97;;;10.40;99.90;;;;;;4150449;28;20057;-59
2022/10/18 03:46:02;;;;;;;19.23;4.80;;;10.30;99.90;;;;;;4152801;28;20579;-59
2022/10/18 03:48:22;;;;;;;38.95;7.00;;;10.20;99.90;;;;;;4154647;28;20044;-59
2022/10/18 03:50:43;;;;;;;54.67;8.38;;;10.20;99.90;;;;;;4156628;28;20044;-59
2022/10/18 03:53:03;;;;;;;46.45;9.00;;;10.20;99.90;;;;;;4157696;28;20052;-58
2022/10/18 03:55:24;;;;;;;37.03;7.05;;;10.10;99.90;;;;;;4160686;28;20053;-59
2022/10/18 03:57:45;;;;;;;39.58;6.72;;;10.10;99.90;;;;;;4162691;28;20049;-58
2022/10/18 04:00:07;;;;;;;54.03;7.22;;;10.10;99.90;;;;;;4151657;28;20057;-59
2022/10/18 04:02:27;;;;;;;87.00;7.45;;;10.00;99.90;;;;;;4158097;28;20504;-59
2022/10/18 04:04:48;;;;;;;76.63;7.22;;;10.10;99.90;;;;;;4156155;28;20108;-59
2022/10/18 04:07:08;;;;;;;74.15;6.43;;;10.00;99.90;;;;;;4157294;28;20107;-59
2022/10/18 04:09:29;;;;;;;98.88;8.25;;;9.90;99.90;;;;;;4154947;28;20061;-59
2022/10/18 04:11:50;;;;;;;57.08;6.97;;;10.00;99.90;;;;;;4152754;28;20531;-59
2022/10/18 04:14:11;;;;;;;20.55;5.13;;;9.90;99.90;;;;;;4158527;28;20047;-59
2022/10/18 04:16:32;;;;;;;4.72;4.63;;;9.90;99.90;;;;;;4151576;28;20104;-59
2022/10/18 04:18:52;;;;;;;5.63;5.43;;;10.00;99.90;;;;;;4134446;28;20056;-59
2022/10/18 04:21:13;;;;;;;4.65;4.07;;;10.10;99.90;;;;;;4151666;28;20103;-59
2022/10/18 04:23:33;;;;;;;19.23;4.95;;;10.10;99.90;;;;;;4166970;28;20096;-58
2022/10/18 04:25:58;;;;;;;10.43;3.90;;;10.10;99.90;;;;;;4154079;28;20048;-58
2022/10/18 04:28:18;;;;;;;4.65;4.35;;;10.00;99.90;;;;;;4156416;28;20127;-59
2022/10/18 04:30:39;;;;;;;138.00;8.15;;;9.90;99.90;;;;;;4158007;28;20056;-59
2022/10/18 04:32:59;;;;;;;21.25;4.68;;;9.90;99.90;;;;;;4157087;28;20061;-59
2022/10/18 04:35:23;;;;;;;4.70;4.50;;;9.90;99.90;;;;;;4160802;28;20059;-58
2022/10/18 04:37:44;;;;;;;4.35;4.25;;;9.90;99.90;;;;;;4147701;28;20075;-59
2022/10/18 04:40:05;;;;;;;4.95;4.85;;;10.00;99.90;;;;;;4149250;28;20096;-61
2022/10/18 04:42:26;;;;;;;196.23;11.48;;;10.10;99.90;;;;;;4151089;28;20500;-61
2022/10/18 04:44:46;;;;;;;72.63;7.60;;;9.90;99.90;;;;;;4153014;28;20103;-61
2022/10/18 04:47:07;;;;;;;219.57;12.32;;;9.80;99.90;;;;;;4152881;28;20120;-61
2022/10/18 04:49:28;;;;;;;111.50;7.10;;;9.70;99.90;;;;;;4153367;28;20116;-62
2022/10/18 04:51:48;;;;;;;91.85;7.28;;;9.70;99.90;;;;;;4151589;28;20129;-62
2022/10/18 04:54:09;;;;;;;126.05;7.97;;;9.70;99.90;;;;;;4159705;28;20481;-62
2022/10/18 04:56:29;;;;;;;96.85;7.70;;;9.60;99.90;;;;;;4147754;28;20104;-61
2022/10/18 04:58:50;;;;;;;275.58;13.50;;;9.60;99.90;;;;;;4149319;28;20057;-61
2022/10/18 05:01:11;;;;;;;5.15;4.90;;;9.60;99.90;;;;;;4151219;28;20084;-62
2022/10/18 05:03:33;;;;;;;76.05;6.60;;;9.70;99.90;;;;;;4153495;28;20092;-62
2022/10/18 05:05:53;;;;;;;140.13;9.35;;;9.70;99.90;;;;;;4155437;28;20140;-61
2022/10/18 05:08:22;;;;;;;145.98;8.25;;;9.60;99.90;;;;;;4152776;28;20056;-61
2022/10/18 05:10:42;;;;;;;125.00;8.90;;;9.60;99.90;;;;;;4150760;28;20130;-61
2022/10/18 05:13:03;;;;;;;89.30;7.82;;;9.50;99.90;;;;;;4149052;28;20052;-61
2022/10/18 05:15:24;;;;;;;116.95;8.75;;;9.50;99.90;;;;;;4154174;28;20663;-62
2022/10/18 05:17:44;;;;;;;4.80;4.45;;;9.60;99.90;;;;;;4149747;28;20056;-62
2022/10/18 05:20:05;;;;;;;30.63;6.15;;;9.60;99.90;;;;;;4150528;28;20566;-62
2022/10/18 05:22:26;;;;;;;67.07;7.03;;;9.70;99.90;;;;;;4152827;28;20056;-62
2022/10/18 05:24:46;;;;;;;8.38;4.63;;;9.60;99.90;;;;;;4154510;28;20095;-62
2022/10/18 05:27:09;;;;;;;174.10;10.57;;;9.60;99.90;;;;;;4156730;28;20563;-61
2022/10/18 05:29:30;;;;;;;183.18;11.18;;;9.60;99.90;;;;;;4158772;28;20056;-62
2022/10/18 05:31:51;;;;;;;80.68;6.55;;;9.50;99.90;;;;;;4154828;28;20069;-61
2022/10/18 05:34:11;;;;;;;6.18;4.57;;;9.40;99.90;;;;;;4150490;28;20073;-62
2022/10/18 05:36:32;;;;;;;132.77;8.25;;;9.50;99.90;;;;;;4152882;28;20111;-62
2022/10/18 05:38:52;;;;;;;150.43;9.93;;;9.40;99.90;;;;;;4157332;28;20091;-62
2022/10/18 05:41:13;;;;;;;92.97;6.97;;;9.40;99.90;;;;;;4156955;28;20880;-62
2022/10/18 05:43:34;;;;;;;95.85;7.93;;;9.30;99.90;;;;;;4155166;28;20056;-62
2022/10/18 05:45:55;;;;;;;65.72;7.07;;;9.30;99.90;;;;;;4152155;28;20048;-62
2022/10/18 05:48:15;;;;;;;23.23;4.80;;;9.40;99.90;;;;;;4150032;28;20496;-62
2022/10/18 05:50:35;;;;;;;74.18;6.53;;;9.40;99.90;;;;;;4149881;28;20125;-62
2022/10/18 05:53:00;;;;;;;8.98;5.30;;;9.50;99.90;;;;;;4150104;28;20104;-62
2022/10/18 05:55:38;;;;;;;38.03;4.88;;;9.50;99.90;;;;;;4152957;28;20055;-62
2022/10/18 05:57:58;;;;;;;13.93;5.22;;;9.50;99.90;;;;;;4151663;28;20104;-62
2022/10/18 06:00:19;;;;;;;106.90;9.15;;;9.50;99.90;;;;;;4159692;28;20129;-62
2022/10/18 06:02:39;;;;;;;89.70;7.07;;;9.50;99.90;;;;;;4158426;28;20088;-62
2022/10/18 06:05:00;;;;;;;97.05;7.78;;;9.40;99.90;;;;;;4161243;28;20053;-62
2022/10/18 06:07:21;;;;;;;54.08;6.43;;;9.40;99.90;;;;;;4154217;28;20575;-62
2022/10/18 06:09:41;;;;;;;23.65;5.57;;;9.40;99.90;;;;;;4154363;28;20053;-62
2022/10/18 06:12:03;;;;;;;48.33;6.60;;;9.50;99.90;;;;;;4164131;28;20072;-62
2022/10/18 06:14:25;;;;;;;128.45;9.45;;;9.50;99.90;;;;;;4150793;28;20053;-62
2022/10/18 06:16:45;;;;;;;115.63;8.55;;;9.60;99.90;;;;;;4148925;28;20133;-62
2022/10/18 06:19:06;;;;;;;44.33;5.38;;;9.60;99.90;;;;;;4158516;28;20503;-62
2022/10/18 06:21:27;;;;;;;5.13;4.43;;;9.60;99.90;;;;;;4161106;28;20099;-62
2022/10/18 06:23:51;;;;;;;123.45;10.13;;;9.70;99.90;;;;;;4158948;28;20511;-62
2022/10/18 06:26:11;;;;;;;27.05;5.78;;;9.70;99.90;;;;;;4156115;28;20060;-62
2022/10/18 06:28:34;;;;;;;12.48;3.00;;;9.70;99.90;;;;;;4156963;28;20068;-62
2022/10/18 06:30:56;;;;;;;28.35;4.00;;;9.80;99.90;;;;;;4162315;28;20113;-61
2022/10/18 06:33:16;;;;;;;14.00;3.85;;;9.80;99.90;;;;;;4155209;28;20067;-62
2022/10/18 06:35:37;;;;;;;14.18;3.83;;;9.90;99.90;;;;;;4154369;28;20052;-62
2022/10/18 06:37:57;;;;;;;21.63;3.15;;;9.80;99.90;;;;;;4153156;28;20180;-62
2022/10/18 06:40:18;;;;;;;24.55;3.33;;;9.90;99.90;;;;;;4154716;28;20056;-62
2022/10/18 06:42:39;;;;;;;22.20;5.50;;;9.80;99.90;;;;;;4154721;28;20053;-62
2022/10/18 06:44:59;;;;;;;31.58;5.63;;;9.90;99.90;;;;;;4159527;28;20129;-62
2022/10/18 06:47:19;;;;;;;11.52;3.40;;;9.90;99.90;;;;;;4161643;28;20531;-62
2022/10/18 06:49:40;;;;;;;48.78;5.28;;;9.90;99.90;;;;;;4160899;28;20236;-62
2022/10/18 06:52:01;;;;;;;128.43;7.70;;;9.90;99.90;;;;;;4150051;28;20060;-62
2022/10/18 06:54:22;;;;;;;4.70;2.97;;;10.00;99.90;;;;;;4152521;28;20115;-62
2022/10/18 06:56:42;;;;;;;3.65;3.22;;;10.00;99.90;;;;;;4159221;28;20072;-62
2022/10/18 06:59:03;;;;;;;27.73;3.33;;;10.10;99.90;;;;;;4157403;28;20566;-62
2022/10/18 07:01:24;;;;;;;2.75;2.60;;;10.10;99.90;;;;;;4154797;28;20108;-62
2022/10/18 07:03:46;;;;;;;12.40;3.28;;;10.20;99.90;;;;;;4156387;28;20313;-62
2022/10/18 07:06:09;;;;;;;9.18;3.42;;;10.30;99.90;;;;;;4151381;28;20124;-62
2022/10/18 07:08:30;;;;;;;22.58;3.95;;;10.30;99.90;;;;;;4161898;28;20440;-62
2022/10/18 07:10:52;;;;;;;3.08;2.92;;;10.20;99.90;;;;;;4148823;28;20133;-62
2022/10/18 07:13:13;;;;;;;7.63;3.08;;;10.30;99.90;;;;;;4150877;28;20052;-62
2022/10/18 07:16:07;;;;;;;11.02;3.47;;;10.40;99.90;;;;;;4153441;28;20116;-62
2022/10/18 07:18:36;;;;;;;16.30;3.97;;;10.50;99.90;;;;;;4155700;28;20129;-62
2022/10/18 07:20:56;;;;;;;5.75;3.15;;;10.60;99.90;;;;;;4154199;28;20125;-62
2022/10/18 07:23:19;;;;;;;3.95;3.75;;;10.60;99.90;;;;;;4147738;28;20056;-62
2022/10/18 07:25:40;;;;;;;12.85;3.58;;;10.70;99.90;;;;;;4148012;28;20478;-62
2022/10/18 07:28:00;;;;;;;48.95;4.80;;;10.80;99.90;;;;;;4160238;28;20052;-62
2022/10/18 07:30:22;;;;;;;12.85;3.75;;;10.80;99.90;;;;;;4148822;28;20133;-62
2022/10/18 07:32:42;;;;;;;14.90;4.35;;;10.90;99.90;;;;;;4150009;28;20670;-62
2022/10/18 07:35:03;;;;;;;7.30;4.35;;;10.90;99.90;;;;;;4153191;28;20527;-62
2022/10/18 07:37:24;;;;;;;16.88;4.78;;;10.90;99.90;;;;;;4154769;28;20095;-62
2022/10/18 07:39:49;;;;;;;5.00;4.30;;;11.10;99.90;;;;;;4157877;28;20448;-62
2022/10/18 07:42:10;;;;;;;6.25;4.78;;;11.10;99.90;;;;;;4153914;28;20051;-62
2022/10/18 07:47:30;;;;;;;14.70;5.05;;;11.30;99.90;;;;;;4147734;28;20036;-62
2022/10/18 07:49:54;;;;;;;23.65;4.88;;;11.40;99.90;;;;;;4149530;28;20084;-62
2022/10/18 07:52:15;;;;;;;5.40;4.65;;;11.40;99.90;;;;;;4151731;28;20130;-62
2022/10/18 07:54:36;;;;;;;21.02;5.30;;;11.50;99.90;;;;;;4153692;28;20069;-62
2022/10/18 07:56:57;;;;;;;5.03;4.20;;;11.60;99.90;;;;;;4155656;28;20100;-62
2022/10/18 07:59:17;;;;;;;4.35;4.20;;;11.70;99.90;;;;;;4154488;28;20444;-62
2022/10/18 08:01:38;;;;;;;3.88;3.78;;;11.80;99.90;;;;;;4150445;28;20057;-62
2022/10/18 08:03:59;;;;;;;4.25;4.15;;;12.00;99.90;;;;;;4158795;28;20051;-62
2022/10/18 08:06:26;;;;;;;3.40;3.30;;;12.10;99.90;;;;;;4148945;28;20519;-62
2022/10/18 08:08:47;;;;;;;3.50;3.40;;;12.20;99.90;;;;;;4159927;28;20143;-62
2022/10/18 08:11:14;;;;;;;3.10;3.00;;;12.30;99.90;;;;;;4160294;28;20053;-61
2022/10/18 08:13:35;;;;;;;3.28;3.03;;;12.40;99.90;;;;;;4153012;28;20064;-62
2022/10/18 08:16:05;;;;;;;3.63;3.42;;;12.50;99.90;;;;;;4155592;28;20057;-62
2022/10/18 08:18:26;;;;;;;3.42;3.35;;;12.50;99.90;;;;;;4155337;28;20049;-61
2022/10/18 08:20:46;;;;;;;3.67;3.47;;;12.60;99.90;;;;;;4155945;28;20056;-62
2022/10/18 08:23:09;;;;;;;3.45;3.35;;;12.70;99.90;;;;;;4157966;28;20049;-61
2022/10/18 08:25:30;;;;;;;3.58;3.53;;;12.90;99.90;;;;;;4160016;28;20052;-62
2022/10/18 08:27:51;;;;;;;3.10;3.10;;;13.00;99.90;;;;;;4148133;28;20049;-61
2022/10/18 08:30:13;;;;;;;3.47;3.00;;;13.00;99.90;;;;;;4150643;28;20133;-61
2022/10/18 08:32:33;;;;;;;3.95;3.85;;;13.10;99.90;;;;;;4152175;28;20056;-62
2022/10/18 08:34:54;;;;;;;2.55;2.55;;;13.20;99.90;;;;;;4155056;28;20156;-61
2022/10/18 08:37:15;;;;;;;3.45;3.35;;;13.30;99.90;;;;;;4156924;28;20516;-61
2022/10/18 08:39:36;;;;;;;4.63;2.78;;;13.40;99.90;;;;;;4156091;28;20111;-61
2022/10/18 08:41:59;;;;;;;2.92;2.83;;;13.50;99.90;;;;;;4158663;28;20646;-60
2022/10/18 08:44:30;;;;;;;2.47;2.35;;;13.70;99.90;;;;;;4161119;28;20061;-58
2022/10/18 08:47:05;;;;;;;2.78;2.67;;;13.80;99.90;;;;;;4148749;28;20052;-58
2022/10/18 08:49:40;;;;;;;2.72;2.63;;;14.00;99.90;;;;;;4157022;28;20469;-57
2022/10/18 08:52:34;;;;;;;3.72;2.95;;;14.10;99.90;;;;;;4153180;28;20549;-59
2022/10/18 08:55:02;;;;;;;2.83;2.72;;;14.30;99.90;;;;;;4155808;28;20417;-58
2022/10/18 08:57:23;;;;;;;2.20;2.00;;;14.40;99.90;;;;;;4155282;28;20057;-58
2022/10/18 08:59:44;;;;;;;2.47;2.47;;;14.50;99.90;;;;;;4156831;28;20049;-59
2022/10/18 09:02:31;;;;;;;2.60;2.50;;;14.70;99.90;;;;;;4158382;28;20071;-59
2022/10/18 09:05:23;;;;;;;2.17;1.95;;;14.90;99.90;;;;;;4149969;28;20060;-59
2022/10/18 09:08:10;;;;;;;3.15;2.67;;;15.00;99.90;;;;;;4151211;28;20053;-58
2022/10/18 09:10:48;;;;;;;2.28;1.95;;;15.20;99.90;;;;;;4156129;28;20520;-59
2022/10/18 09:13:33;;;;;;;1.80;1.80;;;15.40;99.90;;;;;;4154776;28;20559;-59
2022/10/18 09:16:25;;;;;;;2.00;2.00;;;15.60;99.90;;;;;;4152341;28;20468;-59
2022/10/18 09:19:27;;;;;;;2.20;2.10;;;15.80;99.90;;;;;;4148796;28;20100;-58
2022/10/18 09:21:50;;;;;;;2.05;1.67;;;16.10;99.90;;;;;;4127265;28;20629;-58
2022/10/18 09:24:21;;;;;;;5.55;2.10;;;16.10;99.90;;;;;;4124375;28;20316;-58
2022/10/18 09:26:47;;;;;;;2.30;2.20;;;16.30;99.90;;;;;;4121141;28;20112;-57
2022/10/18 09:29:20;;;;;;;3.40;2.22;;;16.40;99.90;;;;;;4119840;28;20544;-57
2022/10/18 09:32:22;;;;;;;3.15;2.50;;;16.50;99.90;;;;;;4122307;28;20053;-58
2022/10/18 09:34:49;;;;;;;2.13;1.75;;;16.70;99.90;;;;;;4122918;28;20046;-58
2022/10/18 09:37:15;;;;;;;1.85;1.73;;;16.90;99.90;;;;;;4122801;28;20058;-58
2022/10/18 09:39:38;;;;;;;2.75;2.58;;;17.00;99.90;;;;;;4123915;28;20528;-58
2022/10/18 09:42:10;;;;;;;2.30;2.10;;;17.10;99.90;;;;;;4127493;28;20058;-58
2022/10/18 09:44:36;;;;;;;2.07;2.00;;;17.30;99.90;;;;;;4120799;28;20129;-58
2022/10/18 09:47:07;;;;;;;3.13;1.98;;;17.50;99.90;;;;;;4127662;28;20165;-59
2022/10/18 09:49:39;;;;;;;1.30;1.30;;;17.80;99.90;;;;;;4122681;28;20142;-57
2022/10/18 09:52:06;;;;;;;4.43;1.67;;;17.90;99.90;;;;;;4131024;28;20055;-58
2022/10/18 09:54:34;;;;;;;1.42;1.33;;;18.10;99.90;;;;;;4154782;28;20056;-58
2022/10/18 09:57:37;;;;;;;1.50;1.40;;;18.20;99.90;;;;;;4153489;28;20100;-58
2022/10/18 10:00:00;;;;;;;1.30;1.30;;;18.40;99.90;;;;;;4150630;28;20137;-58
2022/10/18 10:02:21;;;;;;;;;;;18.60;99.90;;;;;;4153453;28;20108;-58
2022/10/18 10:04:42;;;;;;;3.17;1.30;;;18.80;99.90;;;;;;4155531;28;19967;-58
2022/10/18 10:07:17;;;;;;;3.10;1.30;;;19.00;99.90;;;;;;4156196;28;20100;-58
2022/10/18 10:10:06;;;;;;;1.63;1.55;;;19.10;99.90;;;;;;4156967;28;20132;-58
2022/10/18 10:12:33;;;;;;;1.75;1.20;;;19.20;99.90;;;;;;4159163;28;20129;-58
2022/10/18 10:14:54;;;;;;;1.42;1.33;;;19.50;99.90;;;;;;4153015;28;20076;-58
2022/10/18 10:17:28;;;;;;;1.60;1.50;;;19.70;99.90;;;;;;4152002;28;20413;-58
2022/10/18 10:20:02;;;;;;;2.50;1.45;;;20.00;99.90;;;;;;4154198;28;20099;-57
2022/10/18 10:22:27;;;;;;;;;;;20.80;99.90;;;;;;4158987;28;20047;-58
2022/10/18 10:24:51;;;;;;;1.20;1.10;;;21.20;99.90;;;;;;4156763;28;19975;-57
2022/10/18 10:27:42;;;;;;;2.90;1.10;;;21.10;99.90;;;;;;4155072;28;20091;-58
2022/10/18 10:30:19;;;;;;;2.33;1.00;;;21.10;99.90;;;;;;4155225;28;20065;-58
2022/10/18 10:32:50;;;;;;;1.70;0.93;;;21.10;99.90;;;;;;4159315;28;20515;-57
2022/10/18 10:35:26;;;;;;;2.95;1.00;;;21.60;99.90;;;;;;4157634;28;20405;-58
2022/10/18 10:38:25;;;;;;;3.33;1.00;;;21.60;99.90;;;;;;4151359;28;20060;-59
2022/10/18 10:40:51;;;;;;;0.90;0.90;;;22.20;99.90;;;;;;4152872;28;20116;-58
2022/10/18 10:43:21;;;;;;;1.52;1.00;;;21.70;99.90;;;;;;4156392;28;20061;-58
2022/10/18 10:46:17;;;;;;;1.58;1.10;;;21.90;99.90;;;;;;4154496;28;20052;-58
2022/10/18 10:48:46;;;;;;;0.98;0.90;;;22.40;99.90;;;;;;4161565;28;20092;-58
2022/10/18 10:51:09;;;;;;;1.10;1.10;;;22.80;99.90;;;;;;4158085;28;20129;-59
2022/10/18 10:53:35;;;;;;;1.83;1.00;;;22.70;99.90;;;;;;4157148;28;20531;-58
2022/10/18 10:55:57;;;;;;;1.00;1.00;;;22.90;99.90;;;;;;4156575;28;20056;-58
2022/10/18 10:58:18;;;;;;;1.30;0.95;;;22.70;99.90;;;;;;4151283;28;20057;-58
2022/10/18 11:00:43;;;;;;;0.88;0.88;;;22.90;99.90;;;;;;4155711;28;20540;-58
2022/10/18 11:03:20;;;;;;;1.08;0.80;;;23.20;99.90;;;;;;4153569;28;20053;-58
2022/10/18 11:05:57;;;;;;;0.90;0.90;;;23.10;99.90;;;;;;4157859;28;20048;-58
2022/10/18 11:08:40;;;;;;;1.77;1.13;;;22.80;99.90;;;;;;4169613;28;20102;-59
2022/10/18 11:11:19;;;;;;;2.03;1.63;;;23.20;99.90;;;;;;4155609;28;20173;-58
2022/10/18 11:13:42;;;;;;;0.90;0.90;;;22.90;99.90;;;;;;4155809;28;20566;-59
2022/10/18 11:16:17;;;;;;;0.80;0.80;;;23.00;99.90;;;;;;4155595;28;20141;-59
2022/10/18 11:18:39;;;;;;;0.98;0.80;;;23.20;99.90;;;;;;4156576;28;20153;-58
2022/10/18 11:21:15;;;;;;;0.90;0.90;;;23.20;99.90;;;;;;4153360;28;20127;-59
2022/10/18 11:23:38;;;;;;;0.80;0.80;;;23.10;99.90;;;;;;4155088;28;20104;-58
2022/10/18 11:26:07;;;;;;;1.70;0.90;;;23.20;99.90;;;;;;4155884;28;20111;-58
2022/10/18 11:28:49;;;;;;;0.80;0.80;;;23.40;99.90;;;;;;4157402;28;20523;-58
2022/10/18 11:31:41;;;;;;;0.70;0.70;;;23.40;99.90;;;;;;4156271;28;20237;-58
2022/10/18 11:34:31;;;;;;;0.73;0.73;;;23.60;99.90;;;;;;4151904;28;20416;-58
2022/10/18 11:37:01;;;;;;;0.90;0.90;;;23.50;99.90;;;;;;4157676;28;20074;-58
2022/10/18 11:39:59;;;;;;;1.55;1.42;;;23.50;99.90;;;;;;4153235;28;20056;-58
2022/10/18 11:42:38;;;;;;;0.80;0.80;;;24.10;99.90;;;;;;4154874;28;20057;-58
2022/10/18 11:45:11;;;;;;;1.02;0.80;;;23.60;99.90;;;;;;4155868;28;20056;-58
2022/10/18 11:47:51;;;;;;;0.70;0.70;;;23.60;99.90;;;;;;4153179;28;20076;-58
2022/10/18 11:50:35;;;;;;;0.80;0.80;;;23.80;99.90;;;;;;4153626;28;20076;-58
2022/10/18 11:53:07;;;;;;;4.97;0.90;;;23.90;99.90;;;;;;4157937;28;20064;-57
2022/10/18 11:55:53;;;;;;;0.80;0.80;;;23.70;99.90;;;;;;4152640;28;20052;-58
2022/10/18 11:58:39;;;;;;;3.20;0.95;;;23.30;99.90;;;;;;4155058;28;20083;-58
2022/10/18 12:01:33;;;;;;;0.80;0.80;;;23.40;99.90;;;;;;4154806;28;20059;-58
2022/10/18 12:04:09;;;;;;;0.75;0.75;;;23.40;99.90;;;;;;4148510;28;20147;-57
2022/10/18 12:06:35;;;;;;;2.00;0.80;;;23.40;99.90;;;;;;4155916;28;20060;-57
2022/10/18 12:09:15;;;;;;;0.90;0.90;;;23.70;99.90;;;;;;4151677;28;20516;-58
2022/10/18 12:11:45;;;;;;;4.80;1.00;;;23.60;99.90;;;;;;4157101;28;20099;-58
2022/10/18 12:14:27;;;;;;;1.95;1.10;;;23.50;99.90;;;;;;4148876;28;20092;-58
2022/10/18 12:16:48;;;;;;;2.28;0.80;;;23.30;99.90;;;;;;4159044;28;20051;-58
2022/10/18 12:19:27;;;;;;;1.05;0.90;;;23.30;99.90;;;;;;4151428;28;20061;-58
2022/10/18 12:21:50;;;;;;;1.27;1.27;;;23.40;99.90;;;;;;4156795;28;20052;-57
2022/10/18 12:24:17;;;;;;;7.18;2.72;;;23.30;99.90;;;;;;4154696;28;20103;-58
2022/10/18 12:26:39;;;;;;;7.05;0.90;;;23.20;99.90;;;;;;4153344;28;20057;-58
2022/10/18 12:29:26;;;;;;;4.17;0.80;;;23.30;99.90;;;;;;4159239;28;20041;-58
2022/10/18 12:31:53;;;;;;;1.85;1.05;;;23.30;99.90;;;;;;4158332;28;20148;-58
2022/10/18 12:34:17;;;;;;;0.80;0.80;;;23.50;99.90;;;;;;4150380;28;20512;-58
2022/10/18 12:36:52;;;;;;;2.58;1.00;;;23.70;99.90;;;;;;4154955;28;20104;-58
2022/10/18 12:39:31;;;;;;;1.38;1.15;;;23.60;99.90;;;;;;4156701;28;20099;-57
2022/10/18 12:42:03;;;;;;;2.97;0.80;;;23.40;99.90;;;;;;4156147;28;20060;-58
2022/10/18 12:44:33;;;;;;;1.08;0.90;;;23.50;99.90;;;;;;4154395;28;20104;-58